Time;durP1;ratioP1;P1;durP2;ratioP2;P2;SDS_P1;SDS_P2;PMS_P1;PMS_P2;Temp;Humidity;BMP_temperature;BMP_pressure;BME280_temperature;BME280_humidity;BME280_pressure;Samples;Min_cycle;Max_cycle;Signal;HPM_P1;HPM_P2
2022/03/29 00:00:30;;;;;;;21.02;14.75;;;;;;;8.66;68.79;101622.97;5031433;28;20133;-80
2022/03/29 00:02:56;;;;;;;25.95;14.80;;;;;;;8.63;67.97;101625.63;5031389;28;20051;-81
2022/03/29 00:05:21;;;;;;;24.00;15.00;;;;;;;8.59;68.88;101623.88;5031119;28;20517;-81
2022/03/29 00:07:47;;;;;;;25.48;15.63;;;;;;;8.57;68.42;101615.06;5013118;28;20143;-81
2022/03/29 00:10:12;;;;;;;27.70;15.00;;;;;;;8.51;68.12;101613.31;5050896;28;20060;-81
2022/03/29 00:12:38;;;;;;;28.65;16.20;;;;;;;8.47;69.40;101611.53;5016380;28;20124;-81
2022/03/29 00:15:05;;;;;;;25.80;15.77;;;;;;;8.43;69.88;101614.19;5049661;28;20368;-81
2022/03/29 00:17:31;;;;;;;24.45;16.20;;;;;;;8.38;69.67;101607.13;5042553;28;20095;-81
2022/03/29 00:19:57;;;;;;;25.60;15.77;;;;;;;8.36;69.43;101608.03;5031407;28;20036;-81
2022/03/29 00:22:24;;;;;;;24.52;15.80;;;;;;;8.31;69.73;101605.38;5029524;28;20148;-81
2022/03/29 00:24:49;;;;;;;26.90;16.38;;;;;;;8.28;68.82;101610.63;5031476;28;20041;-81
2022/03/29 00:27:15;;;;;;;26.42;16.55;;;;;;;8.27;69.55;101605.38;5030762;28;20464;-82
2022/03/29 00:29:40;;;;;;;27.30;17.35;;;;;;;8.24;70.56;101597.47;5045468;28;20060;-81
2022/03/29 00:32:07;;;;;;;29.27;17.73;;;;;;;8.19;70.34;101600.97;5013088;28;20061;-81
2022/03/29 00:34:34;;;;;;;26.95;17.52;;;;;;;8.18;70.42;101593.94;4996840;28;20038;-81
2022/03/29 00:37:00;;;;;;;28.35;18.58;;;;;;;8.15;71.09;101591.28;5029461;28;20531;-81
2022/03/29 00:39:25;;;;;;;34.72;17.58;;;;;;;8.14;70.63;101586.03;5030829;28;20113;-81
2022/03/29 00:41:52;;;;;;;35.33;17.90;;;;;;;8.09;70.47;101580.75;5029468;28;20041;-81
2022/03/29 00:44:17;;;;;;;28.40;18.50;;;;;;;8.08;71.28;101580.75;5029541;28;20049;-81
2022/03/29 00:46:43;;;;;;;30.38;18.50;;;;;;;8.04;71.19;101576.38;5013027;28;20037;-81
2022/03/29 00:49:08;;;;;;;26.50;18.10;;;;;;;8.02;70.69;101576.34;5042405;28;20025;-81
2022/03/29 00:51:35;;;;;;;25.48;17.42;;;;;;;7.97;70.82;101568.44;5033571;28;20037;-81
2022/03/29 00:54:00;;;;;;;29.42;18.38;;;;;;;7.95;71.20;101566.66;4996400;28;20439;-81
2022/03/29 00:56:26;;;;;;;28.48;18.08;;;;;;;7.90;71.41;101563.16;5029513;28;20053;-81
2022/03/29 00:58:52;;;;;;;30.90;19.63;;;;;;;7.89;72.15;101566.69;5029174;28;20045;-82
2022/03/29 01:01:18;;;;;;;30.45;19.38;;;;;;;7.86;71.96;101561.38;5029042;28;20048;-81
2022/03/29 01:03:43;;;;;;;35.40;19.55;;;;;;;7.85;72.45;101562.28;5030995;28;20252;-82
2022/03/29 01:06:09;;;;;;;28.92;19.75;;;;;;;7.82;71.80;101562.28;5013170;28;20030;-81
2022/03/29 01:08:35;;;;;;;32.08;19.95;;;;;;;7.82;72.27;101557.88;5030804;28;20040;-81
2022/03/29 01:11:02;;;;;;;29.60;19.30;;;;;;;7.81;72.44;101549.94;5029455;28;20452;-81
2022/03/29 01:13:28;;;;;;;29.65;19.65;;;;;;;7.80;73.33;101553.47;5030950;28;20053;-81
2022/03/29 01:15:54;;;;;;;31.77;19.83;;;;;;;7.77;72.77;101548.22;5029424;28;20040;-82
2022/03/29 01:18:20;;;;;;;28.05;19.67;;;;;;;7.73;72.69;101537.63;5030848;28;20021;-82
2022/03/29 01:20:53;;;;;;;33.60;21.00;;;;;;;7.70;72.52;101545.56;5013020;28;20044;-81
2022/03/29 01:23:20;;;;;;;31.83;20.27;;;;;;;7.68;72.45;101555.22;5029472;28;20068;-82
2022/03/29 01:25:48;;;;;;;27.08;19.52;;;;;;;7.65;73.20;101547.31;5029291;28;20030;-81
2022/03/29 01:28:15;;;;;;;36.90;21.25;;;;;;;7.63;72.85;101543.78;5029056;28;20420;-81
2022/03/29 01:30:41;;;;;;;33.15;20.45;;;;;;;7.62;73.58;101543.78;5029366;28;20061;-82
2022/03/29 01:33:08;;;;;;;31.48;21.08;;;;;;;7.60;73.34;101542.91;5012621;28;20123;-82
2022/03/29 01:35:35;;;;;;;32.90;21.83;;;;;;;7.57;73.73;101542.88;5031690;28;20033;-81
2022/03/29 01:38:00;;;;;;;34.05;20.80;;;;;;;7.52;74.57;101533.22;5032752;28;20042;-82
2022/03/29 01:40:27;;;;;;;36.13;22.80;;;;;;;7.52;74.54;101537.63;5034234;28;20033;-81
2022/03/29 01:42:58;;;;;;;33.58;21.30;;;;;;;7.48;74.65;101541.13;5034269;28;20447;-82
2022/03/29 01:45:27;;;;;;;31.75;22.08;;;;;;;7.47;74.52;101539.38;5032676;28;20512;-82
2022/03/29 01:47:53;;;;;;;32.03;21.15;;;;;;;7.45;74.67;101539.38;5032338;28;20880;-81
2022/03/29 01:50:19;;;;;;;28.10;19.63;;;;;;;7.44;72.85;101534.97;5035802;28;20025;-82
2022/03/29 01:52:47;;;;;;;33.83;22.23;;;;;;;7.44;73.37;101528.81;5052344;28;20104;-82
2022/03/29 01:55:16;;;;;;;35.45;23.50;;;;;;;7.43;74.75;101521.78;5052037;28;20102;-82
2022/03/29 01:57:42;;;;;;;34.53;22.05;;;;;;;7.42;74.17;101518.28;5051790;28;20107;-81
2022/03/29 02:02:54;;;;;;;35.85;23.27;;;;;;;7.43;74.86;101511.25;5038443;28;20053;-82
2022/03/29 02:05:20;;;;;;;33.17;21.70;;;;;;;7.41;73.95;101505.09;5052347;28;20436;-81
2022/03/29 02:07:46;;;;;;;35.28;23.45;;;;;;;7.41;74.83;101510.34;5052052;28;20119;-82
2022/03/29 02:10:16;;;;;;;33.78;22.70;;;;;;;7.37;74.29;101501.59;5035355;28;20125;-81
2022/03/29 02:12:42;;;;;;;34.33;22.65;;;;;;;7.36;74.36;101506.84;5051983;28;20052;-82
2022/03/29 02:15:08;;;;;;;38.30;24.30;;;;;;;7.30;74.03;101490.16;5053407;28;20033;-82
2022/03/29 02:17:33;;;;;;;36.97;24.00;;;;;;;7.30;75.20;101497.19;5034939;28;20469;-82
2022/03/29 02:19:59;;;;;;;34.55;23.65;;;;;;;7.31;74.71;101493.66;5018713;28;20127;-82
2022/03/29 02:22:24;;;;;;;34.15;22.90;;;;;;;7.29;75.34;101490.13;5053268;28;20107;-82
2022/03/29 02:24:50;;;;;;;40.00;22.92;;;;;;;7.28;74.70;101486.63;5035122;28;20436;-82
2022/03/29 02:27:15;;;;;;;37.60;24.08;;;;;;;7.26;75.86;101487.50;5031655;28;20469;-81
2022/03/29 02:29:41;;;;;;;35.25;23.67;;;;;;;7.23;75.20;101482.22;5032958;28;20060;-82
2022/03/29 02:32:07;;;;;;;38.55;23.35;;;;;;;7.23;75.40;101487.50;5031513;28;20037;-82
2022/03/29 02:34:32;;;;;;;35.50;23.27;;;;;;;7.21;75.96;101473.44;5031628;28;20337;-82
2022/03/29 02:36:58;;;;;;;32.75;23.00;;;;;;;7.19;76.12;101477.81;5032892;28;20128;-82
2022/03/29 02:39:23;;;;;;;33.88;23.75;;;;;;;7.15;75.20;101476.06;5034560;28;20045;-82
2022/03/29 02:41:49;;;;;;;42.22;24.10;;;;;;;7.15;75.63;101471.69;5046746;28;20049;-82
2022/03/29 02:44:14;;;;;;;35.30;23.52;;;;;;;7.15;76.70;101466.41;5052604;28;20429;-81
2022/03/29 02:46:40;;;;;;;35.80;24.05;;;;;;;7.13;76.42;101465.53;5034768;28;20040;-82
2022/03/29 02:49:06;;;;;;;39.42;25.48;;;;;;;7.14;76.27;101461.13;5037544;28;20041;-82
2022/03/29 02:51:31;;;;;;;36.95;25.80;;;;;;;7.13;76.16;101457.63;5015113;28;20042;-82
2022/03/29 02:53:57;;;;;;;40.15;26.42;;;;;;;7.13;76.96;101451.47;5032699;28;20052;-82
2022/03/29 02:56:23;;;;;;;44.28;26.08;;;;;;;7.13;76.61;101451.47;5014755;28;20132;-81
2022/03/29 02:58:48;;;;;;;41.75;25.98;;;;;;;7.10;76.66;101449.72;5031492;28;20116;-82
2022/03/29 03:01:14;;;;;;;34.50;24.48;;;;;;;7.09;75.81;101453.22;5032663;28;20095;-82
2022/03/29 03:03:39;;;;;;;38.95;25.10;;;;;;;7.08;76.45;101443.56;5014786;28;20100;-82
2022/03/29 03:06:05;;;;;;;41.70;25.98;;;;;;;7.05;76.38;101439.16;5032783;28;20048;-82
2022/03/29 03:08:30;;;;;;;38.25;26.38;;;;;;;7.04;76.61;101426.84;5014494;28;20045;-82
2022/03/29 03:10:56;;;;;;;39.63;25.67;;;;;;;7.00;76.41;101430.38;5014608;28;20128;-82
2022/03/29 03:13:22;;;;;;;39.67;27.25;;;;;;;6.99;77.08;101433.00;5030567;28;20052;-82
2022/03/29 03:15:47;;;;;;;39.15;26.75;;;;;;;6.96;76.27;101431.25;5016402;28;20144;-82
2022/03/29 03:18:13;;;;;;;43.45;26.20;;;;;;;6.94;76.72;101430.34;5030856;28;20026;-82
2022/03/29 03:20:38;;;;;;;41.85;27.55;;;;;;;6.93;76.83;101428.59;5014488;28;20060;-82
2022/03/29 03:23:04;;;;;;;42.83;27.58;;;;;;;6.89;77.09;101425.06;5030711;28;20064;-82
2022/03/29 03:25:29;;;;;;;42.58;25.52;;;;;;;6.88;76.26;101422.47;5014466;28;20239;-82
2022/03/29 03:27:55;;;;;;;44.38;27.63;;;;;;;6.86;77.51;101425.06;5031811;28;20195;-82
2022/03/29 03:30:20;;;;;;;37.10;25.67;;;;;;;6.84;77.30;101424.19;5030607;28;20041;-82
2022/03/29 03:32:46;;;;;;;45.00;28.17;;;;;;;6.83;76.47;101430.34;5030814;28;20056;-82
2022/03/29 03:35:12;;;;;;;42.10;28.02;;;;;;;6.81;77.38;101426.81;5013929;28;20388;-82
2022/03/29 03:37:39;;;;;;;43.35;29.27;;;;;;;6.77;77.81;101426.78;5047228;28;20060;-82
2022/03/29 03:40:07;;;;;;;41.13;27.38;;;;;;;6.78;76.98;101418.91;5031778;28;20037;-82
2022/03/29 03:42:33;;;;;;;49.00;28.95;;;;;;;6.76;77.49;101422.41;5031886;28;20466;-82
2022/03/29 03:44:59;;;;;;;39.97;28.50;;;;;;;6.71;77.15;101424.16;5032051;28;20037;-82
2022/03/29 03:47:26;;;;;;;45.55;27.23;;;;;;;6.71;77.30;101424.16;5031613;28;20048;-82
2022/03/29 03:49:52;;;;;;;41.88;27.33;;;;;;;6.70;76.78;101419.75;5030727;28;20030;-82
2022/03/29 03:52:17;;;;;;;44.70;28.67;;;;;;;6.68;77.32;101415.38;5030399;28;20042;-82
2022/03/29 03:54:44;;;;;;;36.58;25.17;;;;;;;6.68;77.22;101418.00;5030531;28;20067;-82
2022/03/29 03:57:09;;;;;;;42.00;28.90;;;;;;;6.63;77.19;101417.09;5029770;28;20029;-82
2022/03/29 03:59:34;;;;;;;41.10;26.52;;;;;;;6.62;77.62;101412.69;5014173;28;20049;-82
2022/03/29 04:02:00;;;;;;;41.45;28.52;;;;;;;6.61;77.62;101412.72;5031796;28;20022;-82
2022/03/29 04:04:26;;;;;;;45.67;27.27;;;;;;;6.61;77.80;101413.59;5048805;28;20377;-82
2022/03/29 04:06:51;;;;;;;47.90;29.05;;;;;;;6.60;78.53;101400.41;5033646;28;20075;-82
2022/03/29 04:09:17;;;;;;;46.65;27.58;;;;;;;6.58;78.48;101404.81;5050047;28;20052;-82
2022/03/29 04:11:43;;;;;;;46.13;27.40;;;;;;;6.57;79.03;101398.66;5051588;28;20036;-82
2022/03/29 04:14:09;;;;;;;37.72;26.85;;;;;;;6.57;78.56;101397.78;5029938;28;20068;-82
2022/03/29 04:16:35;;;;;;;44.35;29.20;;;;;;;6.54;79.07;101400.41;5030197;28;20084;-82
2022/03/29 04:19:01;;;;;;;39.35;26.40;;;;;;;6.52;78.51;101392.50;5030311;28;20049;-82
2022/03/29 04:21:27;;;;;;;43.00;29.40;;;;;;;6.50;78.16;101386.34;5030117;28;20469;-81
2022/03/29 04:23:53;;;;;;;46.63;30.45;;;;;;;6.50;78.22;101388.09;5013908;28;20132;-82
2022/03/29 04:26:19;;;;;;;48.88;30.35;;;;;;;6.47;78.62;101387.22;5031625;28;20041;-82
2022/03/29 04:28:45;;;;;;;48.78;32.92;;;;;;;6.47;79.42;101384.59;5029720;28;20457;-82
2022/03/29 04:31:10;;;;;;;49.45;30.48;;;;;;;6.46;78.69;101389.84;4997232;28;20049;-81
2022/03/29 04:33:37;;;;;;;42.15;29.83;;;;;;;6.46;78.56;101389.84;5029689;28;20041;-82
2022/03/29 04:36:03;;;;;;;48.30;31.25;;;;;;;6.45;78.99;101383.72;5031482;28;20033;-81
2022/03/29 04:38:31;;;;;;;49.00;32.25;;;;;;;6.44;79.81;101381.94;5031148;28;20025;-83
2022/03/29 04:40:57;;;;;;;53.42;32.53;;;;;;;6.43;79.25;101376.69;5029527;28;20481;-82
2022/03/29 04:43:22;;;;;;;48.88;32.42;;;;;;;6.42;79.38;101374.91;5030055;28;20052;-82
2022/03/29 04:45:48;;;;;;;48.97;32.10;;;;;;;6.42;79.60;101372.28;5030995;28;20026;-83
2022/03/29 04:48:14;;;;;;;53.13;32.97;;;;;;;6.42;79.69;101364.41;5013529;28;20128;-83
2022/03/29 04:50:40;;;;;;;57.28;33.53;;;;;;;6.42;79.64;101362.63;5029705;28;20033;-81
2022/03/29 04:53:07;;;;;;;53.20;33.53;;;;;;;6.41;80.01;101363.53;5012945;28;20049;-81
2022/03/29 04:55:32;;;;;;;57.15;33.28;;;;;;;6.40;80.74;101358.25;5029510;28;20439;-81
2022/03/29 04:58:00;;;;;;;52.15;33.75;;;;;;;6.39;81.22;101367.03;5029458;28;20029;-81
2022/03/29 05:00:25;;;;;;;59.58;35.28;;;;;;;6.38;80.72;101371.41;5013529;28;20029;-81
2022/03/29 05:02:51;;;;;;;62.47;37.13;;;;;;;6.39;80.43;101362.63;5013162;28;20115;-81
2022/03/29 05:05:16;;;;;;;59.63;35.15;;;;;;;6.40;81.11;101360.88;5013066;28;20049;-81
2022/03/29 05:07:43;;;;;;;59.38;36.72;;;;;;;6.39;81.17;101348.59;5029271;28;20038;-81
2022/03/29 05:10:09;;;;;;;68.32;36.05;;;;;;;6.41;81.06;101358.25;5046712;28;20025;-81
2022/03/29 05:12:42;;;;;;;62.92;36.10;;;;;;;6.39;80.97;101349.47;5016532;28;20396;-81
2022/03/29 05:15:09;;;;;;;57.30;35.38;;;;;;;6.38;80.63;101342.47;5037057;28;20061;-81
2022/03/29 05:17:35;;;;;;;59.17;35.33;;;;;;;6.38;81.57;101333.69;5052877;28;20021;-82
2022/03/29 05:20:05;;;;;;;61.63;36.10;;;;;;;6.36;81.61;101336.31;5045415;28;20037;-81
2022/03/29 05:22:31;;;;;;;59.50;35.80;;;;;;;6.38;81.93;101339.84;5015414;28;20132;-81
2022/03/29 05:24:57;;;;;;;60.75;34.85;;;;;;;6.36;81.54;101336.31;5032723;28;20125;-80
2022/03/29 05:27:22;;;;;;;59.58;35.83;;;;;;;6.35;82.23;101342.44;5033370;28;20500;-80
2022/03/29 05:29:48;;;;;;;56.00;34.75;;;;;;;6.37;81.33;101345.97;5049079;28;20056;-80
2022/03/29 05:32:18;;;;;;;58.05;35.47;;;;;;;6.38;81.82;101349.47;5051872;28;20041;-80
2022/03/29 05:34:47;;;;;;;58.67;36.97;;;;;;;6.37;82.18;101340.69;5048987;28;20376;-81
2022/03/29 05:37:14;;;;;;;66.45;37.05;;;;;;;6.39;82.34;101338.09;5040131;28;20523;-81
2022/03/29 05:39:40;;;;;;;58.53;36.80;;;;;;;6.39;81.97;101328.44;5032233;28;20066;-80
2022/03/29 05:42:06;;;;;;;63.85;36.53;;;;;;;6.38;81.85;101341.56;5015412;28;20632;-81
2022/03/29 05:44:32;;;;;;;64.15;36.97;;;;;;;6.38;82.57;101345.09;5015559;28;20037;-81
2022/03/29 05:49:41;;;;;;;61.13;36.50;;;;;;;6.44;81.58;101336.34;5034188;28;20137;-81
2022/03/29 05:52:10;;;;;;;58.83;36.60;;;;;;;6.47;81.76;101342.47;5039685;28;20152;-81
2022/03/29 05:54:36;;;;;;;55.15;33.70;;;;;;;6.49;81.77;101339.88;5036082;28;20041;-81
2022/03/29 05:57:02;;;;;;;56.97;36.13;;;;;;;6.49;82.67;101341.63;5038885;28;20450;-80
2022/03/29 05:59:27;;;;;;;58.25;34.92;;;;;;;6.51;82.42;101335.50;5034178;28;20052;-81
2022/03/29 06:01:53;;;;;;;61.78;36.78;;;;;;;6.50;82.35;101340.75;5036959;28;20356;-80
2022/03/29 06:04:22;;;;;;;59.22;35.80;;;;;;;6.50;81.76;101338.09;5003604;28;20120;-80
2022/03/29 06:06:49;;;;;;;56.85;33.60;;;;;;;6.50;82.04;101330.22;5031547;28;20124;-80
2022/03/29 06:09:14;;;;;;;64.00;36.95;;;;;;;6.50;82.43;101338.09;5042755;28;20461;-80
2022/03/29 06:11:40;;;;;;;61.90;36.35;;;;;;;6.54;82.07;101335.50;5034392;28;20087;-80
2022/03/29 06:14:05;;;;;;;62.55;34.45;;;;;;;6.57;82.53;101338.13;5008571;28;20381;-81
2022/03/29 06:16:31;;;;;;;56.22;34.67;;;;;;;6.59;82.26;101341.66;5050857;28;20043;-80
2022/03/29 06:18:56;;;;;;;58.65;34.30;;;;;;;6.57;82.70;101345.16;5051255;28;20384;-81
2022/03/29 06:21:24;;;;;;;60.00;35.65;;;;;;;6.55;82.48;101350.44;5033582;28;20040;-81
2022/03/29 06:23:50;;;;;;;58.40;35.50;;;;;;;6.53;82.42;101348.63;5015014;28;20107;-81
2022/03/29 06:26:15;;;;;;;58.97;35.08;;;;;;;6.53;82.72;101351.28;5031144;28;20041;-80
2022/03/29 06:28:42;;;;;;;69.43;36.67;;;;;;;6.50;82.82;101349.50;5030902;28;20083;-80
2022/03/29 06:31:07;;;;;;;66.38;36.33;;;;;;;6.46;82.31;101345.13;5032335;28;20068;-80
2022/03/29 06:33:33;;;;;;;75.78;37.63;;;;;;;6.48;83.12;101348.66;5049529;28;20464;-80
2022/03/29 06:35:58;;;;;;;70.75;37.75;;;;;;;6.47;82.36;101346.88;5034441;28;20117;-81
2022/03/29 06:38:24;;;;;;;61.83;37.13;;;;;;;6.48;83.12;101359.19;5040784;28;20029;-80
2022/03/29 06:40:50;;;;;;;54.88;33.65;;;;;;;6.47;82.83;101350.38;5014467;28;20037;-82
2022/03/29 06:43:16;;;;;;;64.00;35.58;;;;;;;6.49;82.83;101347.75;5030824;28;20064;-82
2022/03/29 06:45:42;;;;;;;66.38;36.00;;;;;;;6.51;83.61;101348.66;5031084;28;20342;-82
2022/03/29 06:48:08;;;;;;;62.83;36.97;;;;;;;6.53;82.93;101349.53;5030807;28;20477;-82
2022/03/29 06:50:35;;;;;;;61.95;35.67;;;;;;;6.53;83.37;101349.53;5014287;28;20354;-82
2022/03/29 06:53:01;;;;;;;76.03;38.92;;;;;;;6.52;83.24;101346.91;5044148;28;20174;-82
2022/03/29 06:55:27;;;;;;;63.45;36.35;;;;;;;6.54;83.33;101338.13;5023069;28;20128;-82
2022/03/29 06:57:54;;;;;;;60.70;35.83;;;;;;;6.54;82.58;101335.50;5016709;28;20037;-82
2022/03/29 07:00:20;;;;;;;63.58;36.25;;;;;;;6.58;82.85;101336.41;5041627;28;20033;-82
2022/03/29 07:02:45;;;;;;;68.13;38.15;;;;;;;6.60;83.49;101332.91;5030418;28;20128;-82
2022/03/29 07:05:11;;;;;;;68.30;36.75;;;;;;;6.67;83.62;101339.91;5030317;28;20124;-82
2022/03/29 07:07:37;;;;;;;63.97;36.60;;;;;;;6.70;83.14;101344.31;5031673;28;20045;-82
2022/03/29 07:12:56;;;;;;;73.90;38.13;;;;;;;6.74;83.08;101343.44;5051512;28;20346;-82
2022/03/29 07:15:23;;;;;;;68.10;36.92;;;;;;;6.77;82.45;101338.16;5037913;28;20363;-82
2022/03/29 07:17:48;;;;;;;69.72;38.30;;;;;;;6.77;82.86;101340.78;5033248;28;20085;-83
2022/03/29 07:20:19;;;;;;;78.95;37.83;;;;;;;6.76;82.90;101341.69;5024102;28;20037;-82
2022/03/29 07:22:47;;;;;;;78.72;39.75;;;;;;;6.74;83.07;101337.31;5030952;28;20099;-82
2022/03/29 07:25:13;;;;;;;72.15;38.88;;;;;;;6.73;83.68;101343.44;5029626;28;20082;-82
2022/03/29 07:27:39;;;;;;;77.07;38.92;;;;;;;6.70;82.93;101339.06;5029712;28;20038;-83
2022/03/29 07:30:05;;;;;;;81.57;38.58;;;;;;;6.69;83.61;101345.19;5029778;28;20096;-83
2022/03/29 07:32:31;;;;;;;71.40;39.33;;;;;;;6.71;83.90;101343.44;5040353;28;20131;-83
2022/03/29 07:34:57;;;;;;;74.22;37.88;;;;;;;6.75;83.20;101344.31;5033566;28;20140;-83
2022/03/29 07:37:23;;;;;;;66.30;35.70;;;;;;;6.73;82.99;101346.09;5047094;28;20954;-82
2022/03/29 07:39:53;;;;;;;74.40;38.72;;;;;;;6.73;83.65;101346.09;5013320;28;20047;-83
2022/03/29 07:42:22;;;;;;;80.38;39.95;;;;;;;6.75;83.79;101344.31;5013787;28;20057;-83
2022/03/29 07:44:50;;;;;;;75.05;37.28;;;;;;;6.79;84.06;101349.59;5029699;28;20025;-82
2022/03/29 07:47:19;;;;;;;77.85;39.83;;;;;;;6.83;83.01;101345.22;5029626;28;20056;-83
2022/03/29 07:49:46;;;;;;;74.82;39.95;;;;;;;6.85;83.43;101351.38;5013081;28;20449;-83
2022/03/29 07:52:16;;;;;;;76.90;38.13;;;;;;;6.85;83.49;101352.25;5029435;28;20121;-83
2022/03/29 07:54:41;;;;;;;83.55;38.00;;;;;;;6.86;83.84;101350.47;5013638;28;20365;-83
2022/03/29 07:57:08;;;;;;;73.40;38.30;;;;;;;6.88;83.49;101354.88;4996653;28;20030;-83
2022/03/29 07:59:38;;;;;;;78.35;39.78;;;;;;;6.94;83.89;101346.09;5029900;28;20405;-83
2022/03/29 08:02:07;;;;;;;74.55;38.55;;;;;;;7.00;83.03;101339.97;5029430;28;20068;-83
2022/03/29 08:04:33;;;;;;;73.85;39.25;;;;;;;7.03;82.72;101346.13;5029657;28;20105;-83
2022/03/29 08:07:02;;;;;;;74.97;38.75;;;;;;;7.05;83.60;101351.41;5029476;28;20504;-83
2022/03/29 08:09:28;;;;;;;80.57;39.90;;;;;;;7.07;83.11;101349.59;5026744;28;20064;-83
2022/03/29 08:11:55;;;;;;;70.38;37.92;;;;;;;7.06;82.22;101348.75;5049236;28;20025;-83
2022/03/29 08:14:21;;;;;;;70.57;36.92;;;;;;;7.07;81.87;101350.53;5010083;28;20053;-82
2022/03/29 08:16:47;;;;;;;80.22;39.13;;;;;;;7.11;82.22;101354.00;5029442;28;20378;-83
2022/03/29 08:19:13;;;;;;;73.70;37.58;;;;;;;7.15;82.61;101349.66;5013747;28;20043;-83
2022/03/29 08:21:56;;;;;;;74.70;38.53;;;;;;;7.16;82.34;101357.53;5016258;28;20045;-83
2022/03/29 08:24:23;;;;;;;73.65;39.45;;;;;;;7.17;82.17;101354.03;5050628;28;20124;-83
2022/03/29 08:26:52;;;;;;;62.50;34.88;;;;;;;7.18;82.62;101342.59;5032561;28;20056;-83
2022/03/29 08:29:20;;;;;;;68.68;35.33;;;;;;;7.19;82.44;101339.09;5049162;28;20049;-83
2022/03/29 08:31:47;;;;;;;63.92;35.50;;;;;;;7.21;83.54;101342.59;5045171;28;20022;-83
2022/03/29 08:34:13;;;;;;;56.75;32.63;;;;;;;7.22;81.22;101346.09;5029262;28;20063;-83
2022/03/29 08:36:39;;;;;;;56.80;33.60;;;;;;;7.25;82.78;101346.13;5030584;28;20122;-83
2022/03/29 08:39:06;;;;;;;65.13;35.67;;;;;;;7.18;82.48;101345.25;5012970;28;20073;-83
2022/03/29 08:41:37;;;;;;;63.72;35.30;;;;;;;7.17;83.06;101350.50;5030607;28;20350;-82
2022/03/29 08:44:04;;;;;;;58.97;35.70;;;;;;;7.17;83.00;101345.22;5032518;28;20072;-83
2022/03/29 08:46:42;;;;;;;60.63;34.95;;;;;;;7.20;82.50;101345.25;5032927;28;20044;-83
2022/03/29 08:49:13;;;;;;;60.55;34.90;;;;;;;7.20;82.79;101337.34;5016638;28;20084;-83
2022/03/29 08:51:39;;;;;;;58.60;34.83;;;;;;;7.27;81.71;101342.63;5034454;28;20033;-83
2022/03/29 08:54:05;;;;;;;62.05;35.10;;;;;;;7.31;82.68;101343.47;5032887;28;20303;-83
2022/03/29 08:56:32;;;;;;;65.28;36.58;;;;;;;7.33;82.44;101344.38;5032777;28;20033;-83
2022/03/29 08:58:57;;;;;;;62.58;34.78;;;;;;;7.36;81.90;101341.72;5032957;28;20056;-83
2022/03/29 09:01:23;;;;;;;64.13;37.65;;;;;;;7.39;82.18;101341.72;5032864;28;20021;-83
2022/03/29 09:04:10;;;;;;;62.28;36.33;;;;;;;7.44;81.80;101341.72;5032613;28;20056;-83
2022/03/29 09:06:50;;;;;;;57.92;35.55;;;;;;;7.48;81.75;101335.56;5032958;28;20033;-83
2022/03/29 09:09:37;;;;;;;56.60;33.08;;;;;;;7.53;81.56;101336.44;5032379;28;20444;-83
2022/03/29 09:12:15;;;;;;;65.78;34.78;;;;;;;7.57;81.50;101335.56;5034126;28;20041;-83
2022/03/29 09:18:07;;;;;;;58.45;34.63;;;;;;;7.64;81.64;101334.69;5033873;28;20091;-83
2022/03/29 09:20:33;;;;;;;58.25;33.75;;;;;;;7.69;81.62;101338.19;5044660;28;20346;-83
2022/03/29 09:22:58;;;;;;;60.20;35.15;;;;;;;7.75;81.92;101335.50;5035799;28;20036;-83
2022/03/29 09:25:34;;;;;;;54.58;32.90;;;;;;;7.81;80.91;101333.75;5053786;28;20049;-83
2022/03/29 09:28:03;;;;;;;63.33;35.20;;;;;;;7.85;80.73;101332.84;5053613;28;20158;-83
2022/03/29 09:30:40;;;;;;;57.53;34.90;;;;;;;7.86;80.51;101332.88;5053567;28;20045;-83
2022/03/29 09:33:12;;;;;;;57.97;33.95;;;;;;;7.85;80.78;101332.84;5036612;28;20037;-83
2022/03/29 09:35:59;;;;;;;58.58;34.70;;;;;;;7.88;80.62;101328.44;5032056;28;20045;-83
2022/03/29 09:38:30;;;;;;;59.42;35.17;;;;;;;7.90;80.76;101331.97;5033341;28;20025;-83
2022/03/29 09:40:58;;;;;;;57.22;32.80;;;;;;;7.93;80.44;101333.72;5015902;28;20083;-83
2022/03/29 09:44:04;;;;;;;61.05;34.63;;;;;;;7.95;79.94;101335.47;5032794;28;20030;-83
2022/03/29 09:46:31;;;;;;;54.03;31.30;;;;;;;7.97;80.42;101324.91;5032013;28;20041;-83
2022/03/29 09:49:01;;;;;;;54.63;32.13;;;;;;;7.99;80.33;101320.50;4983119;28;20029;-83
2022/03/29 09:51:28;;;;;;;59.05;33.70;;;;;;;8.04;79.60;101317.88;5032153;28;20050;-83
2022/03/29 09:53:56;;;;;;;59.33;32.50;;;;;;;8.03;79.74;101319.59;5031956;28;20033;-83
2022/03/29 09:56:30;;;;;;;54.03;31.95;;;;;;;8.04;80.26;101316.09;5032428;28;20434;-83
2022/03/29 09:59:14;;;;;;;52.58;30.92;;;;;;;8.08;79.33;101307.28;5031915;28;20045;-83
2022/03/29 10:01:54;;;;;;;54.00;31.92;;;;;;;8.15;79.06;101310.75;5033257;28;20044;-83
2022/03/29 10:04:21;;;;;;;53.97;32.72;;;;;;;8.18;79.75;101303.75;5033018;28;20045;-83
2022/03/29 10:06:49;;;;;;;62.42;33.97;;;;;;;8.13;79.57;101296.69;5031788;28;20037;-83
2022/03/29 10:09:26;;;;;;;57.00;31.10;;;;;;;8.14;77.46;101294.06;5027126;28;20476;-83
2022/03/29 10:11:55;;;;;;;49.05;31.63;;;;;;;8.23;79.44;101295.78;5034989;28;20435;-83
2022/03/29 10:14:22;;;;;;;52.30;31.70;;;;;;;8.33;79.72;101288.69;5043541;28;20065;-83
2022/03/29 10:16:49;;;;;;;52.35;31.13;;;;;;;8.40;79.16;101278.13;5046904;28;20400;-83
2022/03/29 10:19:17;;;;;;;54.35;33.25;;;;;;;8.47;79.27;101288.66;5046928;28;20104;-83
2022/03/29 10:21:44;;;;;;;54.58;32.90;;;;;;;8.53;79.19;101285.97;4998470;28;20044;-83
2022/03/29 10:24:13;;;;;;;51.08;32.05;;;;;;;8.58;78.19;101279.78;5033441;28;20125;-83
2022/03/29 10:26:42;;;;;;;52.95;31.45;;;;;;;8.56;78.29;101281.56;5051263;28;20418;-83
2022/03/29 10:29:08;;;;;;;53.45;32.13;;;;;;;8.56;77.93;101289.47;5044618;28;20053;-83
2022/03/29 10:31:47;;;;;;;51.28;30.52;;;;;;;8.60;78.89;101285.03;4999184;28;20163;-83
2022/03/29 10:34:24;;;;;;;53.83;32.15;;;;;;;8.65;78.49;101280.59;5040822;28;20207;-83
2022/03/29 10:37:15;;;;;;;50.70;31.38;;;;;;;8.71;78.87;101283.22;5031320;28;20041;-83
2022/03/29 10:39:48;;;;;;;49.38;30.58;;;;;;;8.84;78.85;101276.06;5014504;28;20456;-83
2022/03/29 10:42:27;;;;;;;53.22;30.55;;;;;;;8.96;77.90;101283.03;5032003;28;20389;-83
2022/03/29 10:45:18;;;;;;;50.20;30.80;;;;;;;9.07;77.44;101282.94;5031059;28;20083;-83
2022/03/29 10:47:59;;;;;;;50.95;31.27;;;;;;;9.16;76.73;101270.50;5029957;28;20033;-83
2022/03/29 10:50:46;;;;;;;47.45;30.10;;;;;;;9.30;76.98;101275.69;5032143;28;20040;-83
2022/03/29 10:53:30;;;;;;;53.38;31.83;;;;;;;9.39;76.95;101274.69;5030669;28;20095;-83
2022/03/29 10:56:11;;;;;;;52.85;31.88;;;;;;;9.44;76.20;101280.81;5030566;28;20108;-83
2022/03/29 10:59:02;;;;;;;53.53;30.73;;;;;;;9.52;76.15;101276.34;5031991;28;20439;-84
2022/03/29 11:01:39;;;;;;;54.53;32.33;;;;;;;9.60;75.12;101268.34;5030612;28;20064;-84
2022/03/29 11:04:09;;;;;;;53.30;32.10;;;;;;;9.58;74.96;101264.81;4981767;28;20106;-84
2022/03/29 11:06:36;;;;;;;53.22;31.48;;;;;;;9.59;74.96;101246.28;5030034;28;20034;-84
2022/03/29 11:09:07;;;;;;;54.28;32.78;;;;;;;9.61;74.31;101246.28;5037368;28;20144;-84
2022/03/29 11:11:39;;;;;;;;;;;;;;;9.73;74.61;101243.47;5024924;28;20539;-84
2022/03/29 11:14:27;;;;;;;48.30;31.48;;;;;;;9.78;74.11;101244.31;5036815;28;20367;-84
2022/03/29 11:17:16;;;;;;;54.70;31.63;;;;;;;9.76;73.17;101237.28;5046427;28;20097;-83
2022/03/29 11:19:48;;;;;;;51.00;30.92;;;;;;;9.69;72.91;101239.13;5044141;28;20025;-83
2022/03/29 11:22:29;;;;;;;50.30;32.05;;;;;;;9.71;73.98;101241.75;5030134;28;20048;-84
2022/03/29 11:24:58;;;;;;;51.42;31.33;;;;;;;9.77;72.84;101231.97;5017043;28;20140;-84
2022/03/29 11:27:26;;;;;;;50.83;31.00;;;;;;;9.86;72.78;101229.19;5017375;28;20037;-83
2022/03/29 11:29:53;;;;;;;51.63;32.38;;;;;;;9.99;72.32;101231.69;5034252;28;20045;-84
2022/03/29 11:32:18;;;;;;;51.28;32.25;;;;;;;10.09;71.71;101223.63;5029260;28;20099;-84